sensor_id;sensor_type;location;lat;lon;timestamp;pressure;altitude;pressure_sealevel;temperature
14851;BMP180;7517;48.400;11.770;2023-12-20T00:02:20;96349.00;;;9.30
14851;BMP180;7517;48.400;11.770;2023-12-20T00:04:47;96345.00;;;9.30
14851;BMP180;7517;48.400;11.770;2023-12-20T00:07:15;96339.00;;;9.30
14851;BMP180;7517;48.400;11.770;2023-12-20T00:09:42;96338.00;;;9.40
14851;BMP180;7517;48.400;11.770;2023-12-20T00:12:10;96328.00;;;9.40
14851;BMP180;7517;48.400;11.770;2023-12-20T00:14:38;96329.00;;;9.40
14851;BMP180;7517;48.400;11.770;2023-12-20T00:17:05;96322.00;;;9.50
14851;BMP180;7517;48.400;11.770;2023-12-20T00:19:32;96320.00;;;9.50
14851;BMP180;7517;48.400;11.770;2023-12-20T00:21:59;96324.00;;;9.50
14851;BMP180;7517;48.400;11.770;2023-12-20T00:24:26;96328.00;;;9.50
14851;BMP180;7517;48.400;11.770;2023-12-20T00:26:53;96324.00;;;9.60
14851;BMP180;7517;48.400;11.770;2023-12-20T00:29:22;96320.00;;;9.60
14851;BMP180;7517;48.400;11.770;2023-12-20T00:31:49;96305.00;;;9.60
14851;BMP180;7517;48.400;11.770;2023-12-20T00:34:16;96307.00;;;9.60
14851;BMP180;7517;48.400;11.770;2023-12-20T00:36:43;96305.00;;;9.70
14851;BMP180;7517;48.400;11.770;2023-12-20T00:39:10;96292.00;;;9.70
14851;BMP180;7517;48.400;11.770;2023-12-20T00:41:37;96296.00;;;9.70
14851;BMP180;7517;48.400;11.770;2023-12-20T00:44:05;96279.00;;;9.70
14851;BMP180;7517;48.400;11.770;2023-12-20T00:46:33;96289.00;;;9.70
14851;BMP180;7517;48.400;11.770;2023-12-20T00:49:00;96294.00;;;9.80
14851;BMP180;7517;48.400;11.770;2023-12-20T00:51:28;96282.00;;;9.70
14851;BMP180;7517;48.400;11.770;2023-12-20T00:53:55;96279.00;;;9.80
14851;BMP180;7517;48.400;11.770;2023-12-20T00:56:22;96281.00;;;9.80
14851;BMP180;7517;48.400;11.770;2023-12-20T00:58:49;96277.00;;;9.80
14851;BMP180;7517;48.400;11.770;2023-12-20T01:01:17;96268.00;;;9.80
14851;BMP180;7517;48.400;11.770;2023-12-20T01:03:45;96286.00;;;9.80
14851;BMP180;7517;48.400;11.770;2023-12-20T01:06:12;96279.00;;;9.80
14851;BMP180;7517;48.400;11.770;2023-12-20T01:08:40;96293.00;;;9.80
14851;BMP180;7517;48.400;11.770;2023-12-20T01:11:07;96282.00;;;9.90
14851;BMP180;7517;48.400;11.770;2023-12-20T01:13:35;96284.00;;;9.90
14851;BMP180;7517;48.400;11.770;2023-12-20T01:16:02;96277.00;;;9.90
14851;BMP180;7517;48.400;11.770;2023-12-20T01:18:29;96295.00;;;9.90
14851;BMP180;7517;48.400;11.770;2023-12-20T01:21:01;96289.00;;;9.90
14851;BMP180;7517;48.400;11.770;2023-12-20T01:23:30;96292.00;;;9.90
14851;BMP180;7517;48.400;11.770;2023-12-20T01:25:57;96275.00;;;9.90
14851;BMP180;7517;48.400;11.770;2023-12-20T01:28:25;96268.00;;;9.90
14851;BMP180;7517;48.400;11.770;2023-12-20T01:30:52;96270.00;;;9.90
14851;BMP180;7517;48.400;11.770;2023-12-20T01:33:19;96274.00;;;10.00
14851;BMP180;7517;48.400;11.770;2023-12-20T01:35:46;96271.00;;;10.00
14851;BMP180;7517;48.400;11.770;2023-12-20T01:38:15;96276.00;;;10.00
14851;BMP180;7517;48.400;11.770;2023-12-20T01:40:44;96273.00;;;10.00
14851;BMP180;7517;48.400;11.770;2023-12-20T01:43:11;96268.00;;;10.00
14851;BMP180;7517;48.400;11.770;2023-12-20T01:45:39;96259.00;;;10.00
14851;BMP180;7517;48.400;11.770;2023-12-20T01:48:08;96253.00;;;10.00
14851;BMP180;7517;48.400;11.770;2023-12-20T01:50:37;96241.00;;;10.10
14851;BMP180;7517;48.400;11.770;2023-12-20T01:53:07;96242.00;;;10.10
14851;BMP180;7517;48.400;11.770;2023-12-20T01:55:40;96240.00;;;10.10
14851;BMP180;7517;48.400;11.770;2023-12-20T01:58:09;96228.00;;;10.10
14851;BMP180;7517;48.400;11.770;2023-12-20T02:00:38;96229.00;;;10.10
14851;BMP180;7517;48.400;11.770;2023-12-20T02:03:05;96219.00;;;10.10
14851;BMP180;7517;48.400;11.770;2023-12-20T02:05:35;96230.00;;;10.10
14851;BMP180;7517;48.400;11.770;2023-12-20T02:08:02;96217.00;;;10.20
14851;BMP180;7517;48.400;11.770;2023-12-20T02:10:30;96201.00;;;10.20
14851;BMP180;7517;48.400;11.770;2023-12-20T02:12:59;96194.00;;;10.20
14851;BMP180;7517;48.400;11.770;2023-12-20T02:15:26;96200.00;;;10.20
14851;BMP180;7517;48.400;11.770;2023-12-20T02:17:54;96188.00;;;10.20
14851;BMP180;7517;48.400;11.770;2023-12-20T02:20:21;96191.00;;;10.20
14851;BMP180;7517;48.400;11.770;2023-12-20T02:22:50;96183.00;;;10.20
14851;BMP180;7517;48.400;11.770;2023-12-20T02:25:17;96177.00;;;10.20
14851;BMP180;7517;48.400;11.770;2023-12-20T02:27:44;96173.00;;;10.20
14851;BMP180;7517;48.400;11.770;2023-12-20T02:30:12;96180.00;;;10.20
14851;BMP180;7517;48.400;11.770;2023-12-20T02:32:39;96178.00;;;10.20
14851;BMP180;7517;48.400;11.770;2023-12-20T02:35:06;96177.00;;;10.20
14851;BMP180;7517;48.400;11.770;2023-12-20T02:37:34;96180.00;;;10.20
14851;BMP180;7517;48.400;11.770;2023-12-20T02:40:03;96173.00;;;10.20
14851;BMP180;7517;48.400;11.770;2023-12-20T02:42:31;96166.00;;;10.20
14851;BMP180;7517;48.400;11.770;2023-12-20T02:44:58;96173.00;;;10.20
14851;BMP180;7517;48.400;11.770;2023-12-20T02:47:25;96171.00;;;10.20
14851;BMP180;7517;48.400;11.770;2023-12-20T02:49:52;96180.00;;;10.20
14851;BMP180;7517;48.400;11.770;2023-12-20T02:52:20;96194.00;;;10.10
14851;BMP180;7517;48.400;11.770;2023-12-20T02:54:47;96193.00;;;10.10
14851;BMP180;7517;48.400;11.770;2023-12-20T02:57:15;96191.00;;;10.10
14851;BMP180;7517;48.400;11.770;2023-12-20T02:59:42;96162.00;;;10.10
14851;BMP180;7517;48.400;11.770;2023-12-20T03:02:09;96183.00;;;10.10
14851;BMP180;7517;48.400;11.770;2023-12-20T03:04:37;96175.00;;;10.10
14851;BMP180;7517;48.400;11.770;2023-12-20T03:07:04;96172.00;;;10.10
14851;BMP180;7517;48.400;11.770;2023-12-20T03:09:31;96173.00;;;10.10
14851;BMP180;7517;48.400;11.770;2023-12-20T03:11:58;96171.00;;;10.20
14851;BMP180;7517;48.400;11.770;2023-12-20T03:14:27;96176.00;;;10.10
14851;BMP180;7517;48.400;11.770;2023-12-20T03:16:54;96185.00;;;10.20
14851;BMP180;7517;48.400;11.770;2023-12-20T03:19:22;96186.00;;;10.20
14851;BMP180;7517;48.400;11.770;2023-12-20T03:21:49;96187.00;;;10.20
14851;BMP180;7517;48.400;11.770;2023-12-20T03:24:16;96195.00;;;10.20
14851;BMP180;7517;48.400;11.770;2023-12-20T03:26:43;96199.00;;;10.20
14851;BMP180;7517;48.400;11.770;2023-12-20T03:29:10;96197.00;;;10.30
14851;BMP180;7517;48.400;11.770;2023-12-20T03:31:38;96194.00;;;10.30
14851;BMP180;7517;48.400;11.770;2023-12-20T03:34:06;96198.00;;;10.30
14851;BMP180;7517;48.400;11.770;2023-12-20T03:36:33;96198.00;;;10.30
14851;BMP180;7517;48.400;11.770;2023-12-20T03:39:00;96196.00;;;10.30
14851;BMP180;7517;48.400;11.770;2023-12-20T03:41:27;96203.00;;;10.30
14851;BMP180;7517;48.400;11.770;2023-12-20T03:43:54;96200.00;;;10.30
14851;BMP180;7517;48.400;11.770;2023-12-20T03:46:21;96207.00;;;10.30
14851;BMP180;7517;48.400;11.770;2023-12-20T03:48:50;96206.00;;;10.30
14851;BMP180;7517;48.400;11.770;2023-12-20T03:51:17;96204.00;;;10.30
14851;BMP180;7517;48.400;11.770;2023-12-20T03:53:44;96219.00;;;10.30
14851;BMP180;7517;48.400;11.770;2023-12-20T03:56:11;96228.00;;;10.30
14851;BMP180;7517;48.400;11.770;2023-12-20T03:58:38;96223.00;;;10.30
14851;BMP180;7517;48.400;11.770;2023-12-20T04:01:09;96238.00;;;10.30
14851;BMP180;7517;48.400;11.770;2023-12-20T04:03:38;96240.00;;;10.30
14851;BMP180;7517;48.400;11.770;2023-12-20T04:06:07;96213.00;;;10.30
14851;BMP180;7517;48.400;11.770;2023-12-20T04:08:34;96239.00;;;10.30
14851;BMP180;7517;48.400;11.770;2023-12-20T04:11:01;96231.00;;;10.20
14851;BMP180;7517;48.400;11.770;2023-12-20T04:13:28;96238.00;;;10.20
14851;BMP180;7517;48.400;11.770;2023-12-20T04:15:56;96236.00;;;10.10
14851;BMP180;7517;48.400;11.770;2023-12-20T04:18:23;96220.00;;;10.10
14851;BMP180;7517;48.400;11.770;2023-12-20T04:20:50;96227.00;;;10.10
14851;BMP180;7517;48.400;11.770;2023-12-20T04:23:18;96220.00;;;10.00
14851;BMP180;7517;48.400;11.770;2023-12-20T04:25:46;96212.00;;;10.00
14851;BMP180;7517;48.400;11.770;2023-12-20T04:28:13;96227.00;;;9.90
14851;BMP180;7517;48.400;11.770;2023-12-20T04:30:41;96216.00;;;9.90
14851;BMP180;7517;48.400;11.770;2023-12-20T04:33:08;96230.00;;;9.80
14851;BMP180;7517;48.400;11.770;2023-12-20T04:35:35;96228.00;;;9.80
14851;BMP180;7517;48.400;11.770;2023-12-20T04:38:03;96233.00;;;9.70
14851;BMP180;7517;48.400;11.770;2023-12-20T04:40:31;96234.00;;;9.70
14851;BMP180;7517;48.400;11.770;2023-12-20T04:42:58;96239.00;;;9.60
14851;BMP180;7517;48.400;11.770;2023-12-20T04:45:25;96237.00;;;9.60
14851;BMP180;7517;48.400;11.770;2023-12-20T04:47:52;96248.00;;;9.60
14851;BMP180;7517;48.400;11.770;2023-12-20T04:50:20;96243.00;;;9.50
14851;BMP180;7517;48.400;11.770;2023-12-20T04:52:47;96253.00;;;9.50
14851;BMP180;7517;48.400;11.770;2023-12-20T04:55:16;96249.00;;;9.50
14851;BMP180;7517;48.400;11.770;2023-12-20T04:57:44;96248.00;;;9.40
14851;BMP180;7517;48.400;11.770;2023-12-20T05:00:13;96249.00;;;9.40
14851;BMP180;7517;48.400;11.770;2023-12-20T05:02:41;96252.00;;;9.40
14851;BMP180;7517;48.400;11.770;2023-12-20T05:05:08;96248.00;;;9.30
14851;BMP180;7517;48.400;11.770;2023-12-20T05:07:36;96242.00;;;9.30
14851;BMP180;7517;48.400;11.770;2023-12-20T05:10:04;96247.00;;;9.30
14851;BMP180;7517;48.400;11.770;2023-12-20T05:12:31;96254.00;;;9.30
14851;BMP180;7517;48.400;11.770;2023-12-20T05:14:59;96251.00;;;9.20
14851;BMP180;7517;48.400;11.770;2023-12-20T05:17:27;96254.00;;;9.20
14851;BMP180;7517;48.400;11.770;2023-12-20T05:20:01;96258.00;;;9.20
14851;BMP180;7517;48.400;11.770;2023-12-20T05:22:29;96257.00;;;9.20
14851;BMP180;7517;48.400;11.770;2023-12-20T05:24:56;96265.00;;;9.20
14851;BMP180;7517;48.400;11.770;2023-12-20T05:27:23;96268.00;;;9.20
14851;BMP180;7517;48.400;11.770;2023-12-20T05:29:50;96271.00;;;9.20
14851;BMP180;7517;48.400;11.770;2023-12-20T05:32:19;96271.00;;;9.20
14851;BMP180;7517;48.400;11.770;2023-12-20T05:34:46;96268.00;;;9.20
14851;BMP180;7517;48.400;11.770;2023-12-20T05:37:13;96268.00;;;9.20
14851;BMP180;7517;48.400;11.770;2023-12-20T05:39:40;96281.00;;;9.20
14851;BMP180;7517;48.400;11.770;2023-12-20T05:42:07;96280.00;;;9.20
14851;BMP180;7517;48.400;11.770;2023-12-20T05:44:35;96277.00;;;9.20
14851;BMP180;7517;48.400;11.770;2023-12-20T05:47:03;96270.00;;;9.20
14851;BMP180;7517;48.400;11.770;2023-12-20T05:49:32;96291.00;;;9.20
14851;BMP180;7517;48.400;11.770;2023-12-20T05:51:59;96298.00;;;9.20
14851;BMP180;7517;48.400;11.770;2023-12-20T05:54:26;96299.00;;;9.20
14851;BMP180;7517;48.400;11.770;2023-12-20T05:56:53;96305.00;;;9.20
14851;BMP180;7517;48.400;11.770;2023-12-20T05:59:20;96305.00;;;9.20
14851;BMP180;7517;48.400;11.770;2023-12-20T06:01:47;96304.00;;;9.20
14851;BMP180;7517;48.400;11.770;2023-12-20T06:04:14;96306.00;;;9.20
14851;BMP180;7517;48.400;11.770;2023-12-20T06:06:43;96314.00;;;9.20
14851;BMP180;7517;48.400;11.770;2023-12-20T06:09:11;96315.00;;;9.20
14851;BMP180;7517;48.400;11.770;2023-12-20T06:11:38;96319.00;;;9.10
14851;BMP180;7517;48.400;11.770;2023-12-20T06:14:05;96324.00;;;9.10
14851;BMP180;7517;48.400;11.770;2023-12-20T06:16:32;96333.00;;;9.10
14851;BMP180;7517;48.400;11.770;2023-12-20T06:19:00;96321.00;;;9.10
14851;BMP180;7517;48.400;11.770;2023-12-20T06:21:27;96329.00;;;9.10
14851;BMP180;7517;48.400;11.770;2023-12-20T06:23:59;96326.00;;;9.10
14851;BMP180;7517;48.400;11.770;2023-12-20T06:26:26;96339.00;;;9.10
14851;BMP180;7517;48.400;11.770;2023-12-20T06:28:53;96342.00;;;9.10
14851;BMP180;7517;48.400;11.770;2023-12-20T06:31:22;96349.00;;;9.10
14851;BMP180;7517;48.400;11.770;2023-12-20T06:33:49;96337.00;;;9.10
14851;BMP180;7517;48.400;11.770;2023-12-20T06:36:23;96341.00;;;9.00
14851;BMP180;7517;48.400;11.770;2023-12-20T06:38:51;96344.00;;;9.00
14851;BMP180;7517;48.400;11.770;2023-12-20T06:41:19;96342.00;;;9.00
14851;BMP180;7517;48.400;11.770;2023-12-20T06:43:46;96355.00;;;9.00
14851;BMP180;7517;48.400;11.770;2023-12-20T06:46:14;96352.00;;;9.00
14851;BMP180;7517;48.400;11.770;2023-12-20T06:48:42;96360.00;;;9.00
14851;BMP180;7517;48.400;11.770;2023-12-20T06:51:13;96350.00;;;9.00
14851;BMP180;7517;48.400;11.770;2023-12-20T06:53:41;96336.00;;;8.90
14851;BMP180;7517;48.400;11.770;2023-12-20T06:56:10;96342.00;;;8.90
14851;BMP180;7517;48.400;11.770;2023-12-20T06:58:38;96357.00;;;9.00
14851;BMP180;7517;48.400;11.770;2023-12-20T07:01:11;96362.00;;;9.00
14851;BMP180;7517;48.400;11.770;2023-12-20T07:03:38;96383.00;;;9.00
14851;BMP180;7517;48.400;11.770;2023-12-20T07:06:06;96394.00;;;9.00
14851;BMP180;7517;48.400;11.770;2023-12-20T07:08:33;96389.00;;;9.00
14851;BMP180;7517;48.400;11.770;2023-12-20T07:11:00;96399.00;;;9.00
14851;BMP180;7517;48.400;11.770;2023-12-20T07:13:27;96405.00;;;9.00
14851;BMP180;7517;48.400;11.770;2023-12-20T07:15:56;96388.00;;;9.00
14851;BMP180;7517;48.400;11.770;2023-12-20T07:18:23;96406.00;;;9.10
14851;BMP180;7517;48.400;11.770;2023-12-20T07:20:50;96399.00;;;9.00
14851;BMP180;7517;48.400;11.770;2023-12-20T07:23:17;96398.00;;;9.10
14851;BMP180;7517;48.400;11.770;2023-12-20T07:25:45;96400.00;;;9.10
14851;BMP180;7517;48.400;11.770;2023-12-20T07:28:13;96405.00;;;9.00
14851;BMP180;7517;48.400;11.770;2023-12-20T07:30:40;96394.00;;;9.00
14851;BMP180;7517;48.400;11.770;2023-12-20T07:33:08;96411.00;;;9.00
14851;BMP180;7517;48.400;11.770;2023-12-20T07:35:36;96404.00;;;9.00
14851;BMP180;7517;48.400;11.770;2023-12-20T07:38:03;96398.00;;;9.00
14851;BMP180;7517;48.400;11.770;2023-12-20T07:40:30;96416.00;;;9.00
14851;BMP180;7517;48.400;11.770;2023-12-20T07:42:57;96413.00;;;9.00
14851;BMP180;7517;48.400;11.770;2023-12-20T07:45:24;96413.00;;;8.90
14851;BMP180;7517;48.400;11.770;2023-12-20T07:47:52;96411.00;;;8.90
14851;BMP180;7517;48.400;11.770;2023-12-20T07:50:20;96403.00;;;8.90
14851;BMP180;7517;48.400;11.770;2023-12-20T07:52:47;96406.00;;;8.80
14851;BMP180;7517;48.400;11.770;2023-12-20T07:55:14;96414.00;;;8.80
14851;BMP180;7517;48.400;11.770;2023-12-20T07:57:42;96404.00;;;8.80
14851;BMP180;7517;48.400;11.770;2023-12-20T08:00:10;96426.00;;;8.80
14851;BMP180;7517;48.400;11.770;2023-12-20T08:02:39;96421.00;;;8.80
14851;BMP180;7517;48.400;11.770;2023-12-20T08:05:07;96420.00;;;8.80
14851;BMP180;7517;48.400;11.770;2023-12-20T08:07:36;96423.00;;;8.90
14851;BMP180;7517;48.400;11.770;2023-12-20T08:10:04;96421.00;;;8.80
14851;BMP180;7517;48.400;11.770;2023-12-20T08:12:31;96451.00;;;8.90
14851;BMP180;7517;48.400;11.770;2023-12-20T08:14:59;96445.00;;;8.90
14851;BMP180;7517;48.400;11.770;2023-12-20T08:17:26;96448.00;;;8.80
14851;BMP180;7517;48.400;11.770;2023-12-20T08:19:53;96449.00;;;8.80
14851;BMP180;7517;48.400;11.770;2023-12-20T08:22:20;96447.00;;;8.90
14851;BMP180;7517;48.400;11.770;2023-12-20T08:24:49;96445.00;;;8.90
14851;BMP180;7517;48.400;11.770;2023-12-20T08:27:16;96452.00;;;8.90
14851;BMP180;7517;48.400;11.770;2023-12-20T08:29:44;96450.00;;;8.90
14851;BMP180;7517;48.400;11.770;2023-12-20T08:32:11;96443.00;;;8.90
14851;BMP180;7517;48.400;11.770;2023-12-20T08:34:38;96445.00;;;8.90
14851;BMP180;7517;48.400;11.770;2023-12-20T08:37:06;96438.00;;;8.90
14851;BMP180;7517;48.400;11.770;2023-12-20T08:39:33;96454.00;;;8.90
14851;BMP180;7517;48.400;11.770;2023-12-20T08:42:02;96451.00;;;9.00
14851;BMP180;7517;48.400;11.770;2023-12-20T08:44:29;96453.00;;;9.00
14851;BMP180;7517;48.400;11.770;2023-12-20T08:46:56;96443.00;;;9.00
14851;BMP180;7517;48.400;11.770;2023-12-20T08:49:23;96450.00;;;9.00
14851;BMP180;7517;48.400;11.770;2023-12-20T08:51:51;96447.00;;;9.00
14851;BMP180;7517;48.400;11.770;2023-12-20T08:54:18;96443.00;;;9.10
14851;BMP180;7517;48.400;11.770;2023-12-20T08:56:45;96441.00;;;9.10
14851;BMP180;7517;48.400;11.770;2023-12-20T08:59:14;96449.00;;;9.10
14851;BMP180;7517;48.400;11.770;2023-12-20T09:01:41;96439.00;;;9.20
14851;BMP180;7517;48.400;11.770;2023-12-20T09:04:08;96449.00;;;9.20
14851;BMP180;7517;48.400;11.770;2023-12-20T09:06:35;96450.00;;;9.20
14851;BMP180;7517;48.400;11.770;2023-12-20T09:09:03;96445.00;;;9.30
14851;BMP180;7517;48.400;11.770;2023-12-20T09:11:30;96447.00;;;9.30
14851;BMP180;7517;48.400;11.770;2023-12-20T09:13:57;96437.00;;;9.40
14851;BMP180;7517;48.400;11.770;2023-12-20T09:16:25;96445.00;;;9.40
14851;BMP180;7517;48.400;11.770;2023-12-20T09:18:52;96449.00;;;9.50
14851;BMP180;7517;48.400;11.770;2023-12-20T09:21:19;96459.00;;;9.50
14851;BMP180;7517;48.400;11.770;2023-12-20T09:23:48;96449.00;;;9.60
14851;BMP180;7517;48.400;11.770;2023-12-20T09:26:15;96448.00;;;9.60
14851;BMP180;7517;48.400;11.770;2023-12-20T09:28:42;96451.00;;;9.70
14851;BMP180;7517;48.400;11.770;2023-12-20T09:31:09;96463.00;;;9.70
14851;BMP180;7517;48.400;11.770;2023-12-20T09:33:38;96459.00;;;9.70
14851;BMP180;7517;48.400;11.770;2023-12-20T09:36:06;96458.00;;;9.70
14851;BMP180;7517;48.400;11.770;2023-12-20T09:38:33;96449.00;;;9.70
14851;BMP180;7517;48.400;11.770;2023-12-20T09:41:00;96453.00;;;9.70
14851;BMP180;7517;48.400;11.770;2023-12-20T09:43:31;96444.00;;;9.70
14851;BMP180;7517;48.400;11.770;2023-12-20T09:46:03;96454.00;;;9.70
14851;BMP180;7517;48.400;11.770;2023-12-20T09:48:45;96451.00;;;9.70
14851;BMP180;7517;48.400;11.770;2023-12-20T09:51:15;96449.00;;;9.70
14851;BMP180;7517;48.400;11.770;2023-12-20T09:53:43;96448.00;;;9.70
14851;BMP180;7517;48.400;11.770;2023-12-20T09:56:12;96457.00;;;9.70
14851;BMP180;7517;48.400;11.770;2023-12-20T09:58:39;96454.00;;;9.70
14851;BMP180;7517;48.400;11.770;2023-12-20T10:01:07;96452.00;;;9.80
14851;BMP180;7517;48.400;11.770;2023-12-20T10:03:35;96450.00;;;9.80
14851;BMP180;7517;48.400;11.770;2023-12-20T10:06:04;96444.00;;;9.80
14851;BMP180;7517;48.400;11.770;2023-12-20T10:08:32;96449.00;;;9.90
14851;BMP180;7517;48.400;11.770;2023-12-20T10:10:59;96444.00;;;9.90
14851;BMP180;7517;48.400;11.770;2023-12-20T10:13:28;96453.00;;;10.00
14851;BMP180;7517;48.400;11.770;2023-12-20T10:15:56;96452.00;;;10.00
14851;BMP180;7517;48.400;11.770;2023-12-20T10:18:23;96446.00;;;10.00
14851;BMP180;7517;48.400;11.770;2023-12-20T10:20:50;96440.00;;;10.10
14851;BMP180;7517;48.400;11.770;2023-12-20T10:23:19;96441.00;;;10.10
14851;BMP180;7517;48.400;11.770;2023-12-20T10:25:56;96448.00;;;10.10
14851;BMP180;7517;48.400;11.770;2023-12-20T10:28:24;96447.00;;;10.10
14851;BMP180;7517;48.400;11.770;2023-12-20T10:30:54;96448.00;;;10.10
14851;BMP180;7517;48.400;11.770;2023-12-20T10:33:24;96437.00;;;10.10
14851;BMP180;7517;48.400;11.770;2023-12-20T10:35:52;96429.00;;;10.10
14851;BMP180;7517;48.400;11.770;2023-12-20T10:38:21;96434.00;;;10.10
14851;BMP180;7517;48.400;11.770;2023-12-20T10:40:53;96440.00;;;10.10
14851;BMP180;7517;48.400;11.770;2023-12-20T10:43:22;96429.00;;;10.10
14851;BMP180;7517;48.400;11.770;2023-12-20T10:45:52;96425.00;;;10.10
14851;BMP180;7517;48.400;11.770;2023-12-20T10:48:19;96426.00;;;10.10
14851;BMP180;7517;48.400;11.770;2023-12-20T10:50:49;96423.00;;;10.10
14851;BMP180;7517;48.400;11.770;2023-12-20T10:53:16;96427.00;;;10.10
14851;BMP180;7517;48.400;11.770;2023-12-20T10:55:46;96437.00;;;10.10
14851;BMP180;7517;48.400;11.770;2023-12-20T10:58:18;96433.00;;;10.10
14851;BMP180;7517;48.400;11.770;2023-12-20T11:00:50;96431.00;;;10.10
14851;BMP180;7517;48.400;11.770;2023-12-20T11:03:20;96425.00;;;10.10
14851;BMP180;7517;48.400;11.770;2023-12-20T11:06:01;96416.00;;;10.10
14851;BMP180;7517;48.400;11.770;2023-12-20T11:08:38;96417.00;;;10.20
14851;BMP180;7517;48.400;11.770;2023-12-20T11:11:14;96417.00;;;10.20
14851;BMP180;7517;48.400;11.770;2023-12-20T11:13:57;96412.00;;;10.20
14851;BMP180;7517;48.400;11.770;2023-12-20T11:16:25;96410.00;;;10.20
14851;BMP180;7517;48.400;11.770;2023-12-20T11:18:52;96405.00;;;10.30
14851;BMP180;7517;48.400;11.770;2023-12-20T11:21:20;96401.00;;;10.30
14851;BMP180;7517;48.400;11.770;2023-12-20T11:23:48;96412.00;;;10.30
14851;BMP180;7517;48.400;11.770;2023-12-20T11:26:26;96412.00;;;10.30
14851;BMP180;7517;48.400;11.770;2023-12-20T11:28:54;96413.00;;;10.30
14851;BMP180;7517;48.400;11.770;2023-12-20T11:31:21;96407.00;;;10.40
14851;BMP180;7517;48.400;11.770;2023-12-20T11:33:48;96411.00;;;10.30
14851;BMP180;7517;48.400;11.770;2023-12-20T11:36:19;96400.00;;;10.30
14851;BMP180;7517;48.400;11.770;2023-12-20T11:38:57;96392.00;;;10.40
14851;BMP180;7517;48.400;11.770;2023-12-20T11:41:27;96388.00;;;10.40
14851;BMP180;7517;48.400;11.770;2023-12-20T11:43:55;96395.00;;;10.40
14851;BMP180;7517;48.400;11.770;2023-12-20T11:46:22;96386.00;;;10.40
14851;BMP180;7517;48.400;11.770;2023-12-20T11:48:50;96389.00;;;10.50
14851;BMP180;7517;48.400;11.770;2023-12-20T11:51:17;96401.00;;;10.50
14851;BMP180;7517;48.400;11.770;2023-12-20T11:53:44;96389.00;;;10.50
14851;BMP180;7517;48.400;11.770;2023-12-20T11:56:11;96396.00;;;10.50
14851;BMP180;7517;48.400;11.770;2023-12-20T11:58:40;96389.00;;;10.50
14851;BMP180;7517;48.400;11.770;2023-12-20T12:01:08;96391.00;;;10.50
14851;BMP180;7517;48.400;11.770;2023-12-20T12:03:35;96394.00;;;10.50
14851;BMP180;7517;48.400;11.770;2023-12-20T12:06:03;96406.00;;;10.50
14851;BMP180;7517;48.400;11.770;2023-12-20T12:08:31;96396.00;;;10.50
14851;BMP180;7517;48.400;11.770;2023-12-20T12:10:58;96391.00;;;10.60
14851;BMP180;7517;48.400;11.770;2023-12-20T12:13:25;96392.00;;;10.50
14851;BMP180;7517;48.400;11.770;2023-12-20T12:15:55;96383.00;;;10.60
14851;BMP180;7517;48.400;11.770;2023-12-20T12:18:22;96390.00;;;10.60
14851;BMP180;7517;48.400;11.770;2023-12-20T12:20:49;96384.00;;;10.60
14851;BMP180;7517;48.400;11.770;2023-12-20T12:23:23;96380.00;;;10.60
14851;BMP180;7517;48.400;11.770;2023-12-20T12:25:50;96378.00;;;10.60
14851;BMP180;7517;48.400;11.770;2023-12-20T12:28:19;96382.00;;;10.60
14851;BMP180;7517;48.400;11.770;2023-12-20T12:30:57;96377.00;;;10.60
14851;BMP180;7517;48.400;11.770;2023-12-20T12:33:25;96381.00;;;10.60
14851;BMP180;7517;48.400;11.770;2023-12-20T12:35:52;96377.00;;;10.60
14851;BMP180;7517;48.400;11.770;2023-12-20T12:38:20;96365.00;;;10.60
14851;BMP180;7517;48.400;11.770;2023-12-20T12:40:49;96361.00;;;10.60
14851;BMP180;7517;48.400;11.770;2023-12-20T12:43:16;96354.00;;;10.70
14851;BMP180;7517;48.400;11.770;2023-12-20T12:45:43;96350.00;;;10.70
14851;BMP180;7517;48.400;11.770;2023-12-20T12:48:12;96346.00;;;10.70
14851;BMP180;7517;48.400;11.770;2023-12-20T12:50:40;96357.00;;;10.70
14851;BMP180;7517;48.400;11.770;2023-12-20T12:53:07;96352.00;;;10.60
14851;BMP180;7517;48.400;11.770;2023-12-20T12:55:35;96365.00;;;10.60
14851;BMP180;7517;48.400;11.770;2023-12-20T12:58:02;96363.00;;;10.60
14851;BMP180;7517;48.400;11.770;2023-12-20T13:00:30;96360.00;;;10.50
14851;BMP180;7517;48.400;11.770;2023-12-20T13:02:57;96366.00;;;10.50
14851;BMP180;7517;48.400;11.770;2023-12-20T13:05:25;96368.00;;;10.50
14851;BMP180;7517;48.400;11.770;2023-12-20T13:07:53;96368.00;;;10.50
14851;BMP180;7517;48.400;11.770;2023-12-20T13:10:22;96388.00;;;10.50
14851;BMP180;7517;48.400;11.770;2023-12-20T13:12:49;96368.00;;;10.50
14851;BMP180;7517;48.400;11.770;2023-12-20T13:15:17;96375.00;;;10.50
14851;BMP180;7517;48.400;11.770;2023-12-20T13:17:45;96378.00;;;10.50
14851;BMP180;7517;48.400;11.770;2023-12-20T13:20:12;96370.00;;;10.50
14851;BMP180;7517;48.400;11.770;2023-12-20T13:22:41;96378.00;;;10.50
14851;BMP180;7517;48.400;11.770;2023-12-20T13:25:08;96385.00;;;10.50
14851;BMP180;7517;48.400;11.770;2023-12-20T13:27:35;96388.00;;;10.50
14851;BMP180;7517;48.400;11.770;2023-12-20T13:30:04;96383.00;;;10.40
14851;BMP180;7517;48.400;11.770;2023-12-20T13:32:31;96380.00;;;10.40
14851;BMP180;7517;48.400;11.770;2023-12-20T13:34:59;96382.00;;;10.40
14851;BMP180;7517;48.400;11.770;2023-12-20T13:37:26;96389.00;;;10.40
14851;BMP180;7517;48.400;11.770;2023-12-20T13:39:54;96385.00;;;10.40
14851;BMP180;7517;48.400;11.770;2023-12-20T13:42:22;96395.00;;;10.40
14851;BMP180;7517;48.400;11.770;2023-12-20T13:44:49;96397.00;;;10.30
14851;BMP180;7517;48.400;11.770;2023-12-20T13:47:16;96399.00;;;10.30
14851;BMP180;7517;48.400;11.770;2023-12-20T13:49:43;96398.00;;;10.30
14851;BMP180;7517;48.400;11.770;2023-12-20T13:52:11;96400.00;;;10.30
14851;BMP180;7517;48.400;11.770;2023-12-20T13:54:38;96398.00;;;10.20
14851;BMP180;7517;48.400;11.770;2023-12-20T13:57:06;96398.00;;;10.20
14851;BMP180;7517;48.400;11.770;2023-12-20T13:59:34;96405.00;;;10.20
14851;BMP180;7517;48.400;11.770;2023-12-20T14:02:01;96402.00;;;10.20
14851;BMP180;7517;48.400;11.770;2023-12-20T14:04:29;96413.00;;;10.10
14851;BMP180;7517;48.400;11.770;2023-12-20T14:06:56;96404.00;;;10.10
14851;BMP180;7517;48.400;11.770;2023-12-20T14:09:24;96409.00;;;10.00
14851;BMP180;7517;48.400;11.770;2023-12-20T14:11:51;96408.00;;;10.00
14851;BMP180;7517;48.400;11.770;2023-12-20T14:14:19;96412.00;;;9.90
14851;BMP180;7517;48.400;11.770;2023-12-20T14:16:46;96405.00;;;9.90
14851;BMP180;7517;48.400;11.770;2023-12-20T14:19:14;96406.00;;;9.90
14851;BMP180;7517;48.400;11.770;2023-12-20T14:21:41;96403.00;;;9.80